createdAt,value
2023-05-12T00:00:31.368Z,50.804295
2023-05-12T00:01:31.203Z,50.804321
2023-05-12T00:02:31.236Z,50.804306
2023-05-12T00:03:31.298Z,50.804337
2023-05-12T00:04:31.252Z,50.804317
2023-05-12T00:05:31.220Z,50.804359
2023-05-12T00:06:31.161Z,50.804256
2023-05-12T00:07:31.301Z,50.804291
2023-05-12T00:08:31.157Z,50.804298
2023-05-12T00:09:31.121Z,50.804321
2023-05-12T00:10:31.151Z,50.804310
2023-05-12T00:11:31.175Z,50.804276
2023-05-12T00:12:31.186Z,50.804291
2023-05-12T00:13:31.135Z,50.804283
2023-05-12T00:14:31.134Z,50.804314
2023-05-12T00:15:31.125Z,50.804333
2023-05-12T00:16:31.114Z,50.804356
2023-05-12T00:17:31.152Z,50.804317
2023-05-12T00:18:31.167Z,50.804317
2023-05-12T00:19:31.092Z,50.804337
2023-05-12T00:20:31.230Z,50.804337
2023-05-12T00:21:31.080Z,50.804359
2023-05-12T00:22:31.070Z,50.804333
2023-05-12T00:23:31.102Z,50.804363
2023-05-12T00:24:31.050Z,50.804325
2023-05-12T00:25:31.060Z,50.804333
2023-05-12T00:26:31.033Z,50.804352
2023-05-12T00:27:31.002Z,50.804314
2023-05-12T00:28:30.997Z,50.804295
2023-05-12T00:29:31.052Z,50.804352
2023-05-12T00:30:31.022Z,50.804356
2023-05-12T00:31:31.117Z,50.804298
2023-05-12T00:32:31.016Z,50.804321
2023-05-12T00:33:30.975Z,50.804367
2023-05-12T00:34:30.975Z,50.804337
2023-05-12T00:35:31.074Z,50.804306
2023-05-12T00:36:30.958Z,50.804306
2023-05-12T00:37:30.942Z,50.804268
2023-05-12T00:38:30.952Z,50.804398
2023-05-12T00:39:30.940Z,50.804291
2023-05-12T00:40:31.050Z,50.804352
2023-05-12T00:41:31.040Z,50.804329
2023-05-12T00:42:30.887Z,50.804337
2023-05-12T00:43:30.948Z,50.804337
2023-05-12T00:44:30.897Z,50.804295
2023-05-12T00:45:31.045Z,50.804291
2023-05-12T00:46:30.947Z,50.804276
2023-05-12T00:47:31.334Z,50.804295
2023-05-12T00:48:30.920Z,50.804325
2023-05-12T00:49:30.870Z,50.804310
2023-05-12T00:50:30.869Z,50.804287
2023-05-12T00:51:30.870Z,50.804325
2023-05-12T00:52:30.875Z,50.804329
2023-05-12T00:53:45.001Z,50.804329
2023-05-12T00:54:31.844Z,50.804287
2023-05-12T00:55:30.800Z,50.804283
2023-05-12T00:56:30.803Z,50.804298
2023-05-12T00:57:30.769Z,50.804333
2023-05-12T00:58:30.768Z,50.804321
2023-05-12T00:59:30.875Z,50.804298
2023-05-12T01:00:30.794Z,50.804287
2023-05-12T01:01:30.784Z,50.804314
2023-05-12T01:02:30.798Z,50.804325
2023-05-12T01:03:30.850Z,50.804207
2023-05-12T01:04:30.734Z,50.804253
2023-05-12T01:05:30.756Z,50.804279
2023-05-12T01:06:30.705Z,50.804279
2023-05-12T01:07:30.698Z,50.804218
2023-05-12T01:08:30.745Z,50.804268
2023-05-12T01:09:30.678Z,50.804401
2023-05-12T01:10:30.697Z,50.804401
2023-05-12T01:11:30.747Z,50.804295
2023-05-12T01:12:30.707Z,50.804379
2023-05-12T01:13:30.682Z,50.804401
2023-05-12T01:14:30.674Z,50.804295
2023-05-12T01:15:30.653Z,50.804329
2023-05-12T01:16:30.668Z,50.804352
2023-05-12T01:17:30.792Z,50.804325
2023-05-12T01:18:30.778Z,50.804317
2023-05-12T01:19:30.642Z,50.804314
2023-05-12T01:20:30.624Z,50.804264
2023-05-12T01:21:30.695Z,50.804245
2023-05-12T01:22:30.646Z,50.804287
2023-05-12T01:23:30.780Z,50.804283
2023-05-12T01:24:30.592Z,50.804276
2023-05-12T01:25:30.606Z,50.804276
2023-05-12T01:26:30.591Z,50.804382
2023-05-12T01:27:30.589Z,50.804314
2023-05-12T01:28:30.557Z,50.804325
2023-05-12T01:29:30.580Z,50.804317
2023-05-12T01:30:30.668Z,50.804359
2023-05-12T01:31:30.612Z,50.804356
2023-05-12T01:32:30.667Z,50.804310
2023-05-12T01:33:30.559Z,50.804295
2023-05-12T01:34:30.540Z,50.804279
2023-05-12T01:35:30.596Z,50.804302
2023-05-12T01:36:30.557Z,50.804329
2023-05-12T01:37:30.503Z,50.804272
2023-05-12T01:38:30.509Z,50.804260
2023-05-12T01:39:30.527Z,50.804264
2023-05-12T01:40:30.530Z,50.804287
2023-05-12T01:41:30.521Z,50.804253
2023-05-12T01:42:30.484Z,50.804310
2023-05-12T01:43:30.482Z,50.804268
2023-05-12T01:44:30.482Z,50.804276
2023-05-12T01:45:30.473Z,50.804245
2023-05-12T01:46:30.452Z,50.804302
2023-05-12T01:47:30.511Z,50.804306
2023-05-12T01:48:30.446Z,50.804333
2023-05-12T01:49:30.424Z,50.804314
2023-05-12T01:50:30.429Z,50.804264
2023-05-12T01:51:30.411Z,50.804329
2023-05-12T01:52:30.414Z,50.804317
2023-05-12T01:53:30.826Z,50.804314
2023-05-12T01:54:30.391Z,50.804340
2023-05-12T01:55:30.376Z,50.804325
2023-05-12T01:56:30.384Z,50.804344
2023-05-12T01:57:30.361Z,50.804298
2023-05-12T01:58:30.349Z,50.804302
2023-05-12T01:59:30.396Z,50.804329
2023-05-12T02:00:30.371Z,50.804401
2023-05-12T02:01:30.371Z,50.804306
2023-05-12T02:02:30.381Z,50.804314
2023-05-12T02:03:30.389Z,50.804314
2023-05-12T02:04:30.320Z,50.804325
2023-05-12T02:05:30.347Z,50.804363
2023-05-12T02:06:30.311Z,50.804478
2023-05-12T02:07:30.299Z,50.804352
2023-05-12T02:08:30.272Z,50.804340
2023-05-12T02:09:30.263Z,50.804363
2023-05-12T02:10:30.266Z,50.804337
2023-05-12T02:11:30.330Z,50.804317
2023-05-12T02:12:30.242Z,50.804325
2023-05-12T02:13:30.258Z,50.804298
2023-05-12T02:14:30.249Z,50.804310
2023-05-12T02:15:30.251Z,50.804302
2023-05-12T02:16:30.244Z,50.804298
2023-05-12T02:17:30.285Z,50.804314
2023-05-12T02:18:30.244Z,50.804356
2023-05-12T02:19:30.180Z,50.804348
2023-05-12T02:20:30.185Z,50.804390
2023-05-12T02:21:30.200Z,50.804363
2023-05-12T02:22:30.187Z,50.804340
2023-05-12T02:23:30.202Z,50.804363
2023-05-12T02:24:30.171Z,50.804321
2023-05-12T02:25:30.153Z,50.804375
2023-05-12T02:26:30.137Z,50.804348
2023-05-12T02:27:30.154Z,50.804321
2023-05-12T02:28:30.147Z,50.804344
2023-05-12T02:29:30.193Z,50.804337
2023-05-12T02:30:30.131Z,50.804295
2023-05-12T02:31:30.126Z,50.804291
2023-05-12T02:32:30.223Z,50.804314
2023-05-12T02:33:30.103Z,50.804302
2023-05-12T02:34:30.126Z,50.804295
2023-05-12T02:35:30.139Z,50.804310
2023-05-12T02:36:30.064Z,50.804298
2023-05-12T02:37:30.083Z,50.804291
2023-05-12T02:38:30.041Z,50.804298
2023-05-12T02:39:30.041Z,50.804279
2023-05-12T02:40:30.070Z,50.804291
2023-05-12T02:41:30.095Z,50.804295
2023-05-12T02:42:30.041Z,50.804314
2023-05-12T02:43:30.026Z,50.804317
2023-05-12T02:44:30.006Z,50.804317
2023-05-12T02:45:30.044Z,50.804329
2023-05-12T02:46:30.005Z,50.804337
2023-05-12T02:47:30.183Z,50.804317
2023-05-12T02:48:29.987Z,50.804321
2023-05-12T02:49:29.985Z,50.804329
2023-05-12T02:50:30.008Z,50.804348
2023-05-12T02:51:29.974Z,50.804302
2023-05-12T02:52:29.957Z,50.804314
2023-05-12T02:53:30.085Z,50.804321
2023-05-12T02:54:29.955Z,50.804344
2023-05-12T02:55:30.157Z,50.804359
2023-05-12T02:56:31.357Z,50.804390
2023-05-12T02:57:30.009Z,50.804329
2023-05-12T02:58:29.943Z,50.804337
2023-05-12T02:59:30.169Z,50.804310
2023-05-12T03:00:29.886Z,50.804356
2023-05-12T03:01:29.975Z,50.804363
2023-05-12T03:02:29.961Z,50.804398
2023-05-12T03:03:30.052Z,50.804375
2023-05-12T03:04:29.939Z,50.804356
2023-05-12T03:05:29.949Z,50.804344
2023-05-12T03:06:29.898Z,50.804337
2023-05-12T03:07:29.876Z,50.804398
2023-05-12T03:08:29.858Z,50.804359
2023-05-12T03:09:29.829Z,50.804367
2023-05-12T03:10:29.860Z,50.804379
2023-05-12T03:11:29.851Z,50.804344
2023-05-12T03:12:29.826Z,50.804394
2023-05-12T03:13:29.826Z,50.804455
2023-05-12T03:14:29.801Z,50.804485
2023-05-12T03:15:29.794Z,50.804462
2023-05-12T03:16:29.820Z,50.804451
2023-05-12T03:17:29.873Z,50.804420
2023-05-12T03:18:29.867Z,50.804428
2023-05-12T03:19:29.762Z,50.804371
2023-05-12T03:20:29.800Z,50.804375
2023-05-12T03:21:29.729Z,50.804337
2023-05-12T03:22:29.753Z,50.804398
2023-05-12T03:23:29.793Z,50.804390
2023-05-12T03:24:29.706Z,50.804409
2023-05-12T03:25:29.733Z,50.804325
2023-05-12T03:26:29.702Z,50.804340
2023-05-12T03:27:29.696Z,50.804428
2023-05-12T03:28:29.692Z,50.804375
2023-05-12T03:29:29.755Z,50.804283
2023-05-12T03:30:29.711Z,50.804371
2023-05-12T03:31:29.718Z,50.804367
2023-05-12T03:32:29.712Z,50.804340
2023-05-12T03:33:29.652Z,50.804325
2023-05-12T03:34:29.635Z,50.804329
2023-05-12T03:35:29.676Z,50.804363
2023-05-12T03:36:29.652Z,50.804344
2023-05-12T03:37:29.651Z,50.804379
2023-05-12T03:38:29.632Z,50.804344
2023-05-12T03:39:29.620Z,50.804333
2023-05-12T03:40:29.607Z,50.804333
2023-05-12T03:41:29.639Z,50.804333
2023-05-12T03:42:29.594Z,50.804310
2023-05-12T03:43:29.586Z,50.804352
2023-05-12T03:44:29.623Z,50.804356
2023-05-12T03:45:29.571Z,50.804344
2023-05-12T03:46:29.655Z,50.804337
2023-05-12T03:47:29.688Z,50.804340
2023-05-12T03:48:29.654Z,50.804348
2023-05-12T03:49:29.584Z,50.804405
2023-05-12T03:50:29.551Z,50.804344
2023-05-12T03:51:29.569Z,50.804344
2023-05-12T03:52:29.537Z,50.804317
2023-05-12T03:53:29.554Z,50.804264
2023-05-12T03:54:29.541Z,50.804310
2023-05-12T03:55:29.554Z,50.804359
2023-05-12T03:56:29.530Z,50.804398
2023-05-12T03:57:29.490Z,50.804367
2023-05-12T03:58:29.513Z,50.804371
2023-05-12T03:59:29.543Z,50.804401
2023-05-12T04:00:29.466Z,50.804310
2023-05-12T04:01:29.468Z,50.804367
2023-05-12T04:02:29.583Z,50.804344
2023-05-12T04:03:29.526Z,50.804306
2023-05-12T04:04:29.468Z,50.804375
2023-05-12T04:05:29.476Z,50.804356
2023-05-12T04:06:29.430Z,50.804352
2023-05-12T04:07:29.409Z,50.804413
2023-05-12T04:08:29.439Z,50.804413
2023-05-12T04:09:29.394Z,50.804413
2023-05-12T04:10:29.425Z,50.804359
2023-05-12T04:11:29.440Z,50.804394
2023-05-12T04:12:29.362Z,50.804317
2023-05-12T04:13:29.375Z,50.804314
2023-05-12T04:14:41.787Z,50.804375
2023-05-12T04:15:30.350Z,50.804401
2023-05-12T04:16:29.377Z,50.804386
2023-05-12T04:17:29.367Z,50.804367
2023-05-12T04:18:29.378Z,50.804386
2023-05-12T04:19:29.325Z,50.804371
2023-05-12T04:20:29.376Z,50.804348
2023-05-12T04:21:29.336Z,50.804291
2023-05-12T04:22:29.292Z,50.804401
2023-05-12T04:23:29.301Z,50.804432
2023-05-12T04:24:29.276Z,50.804359
2023-05-12T04:25:29.335Z,50.804371
2023-05-12T04:26:29.275Z,50.804417
2023-05-12T04:27:29.317Z,50.804363
2023-05-12T04:28:29.257Z,50.804344
2023-05-12T04:29:29.300Z,50.804310
2023-05-12T04:30:29.277Z,50.804344
2023-05-12T04:31:29.397Z,50.804314
2023-05-12T04:32:29.252Z,50.804344
2023-05-12T04:33:29.234Z,50.804394
2023-05-12T04:34:29.210Z,50.804398
2023-05-12T04:35:29.245Z,50.804398
2023-05-12T04:36:29.218Z,50.804302
2023-05-12T04:37:29.229Z,50.804367
2023-05-12T04:38:29.164Z,50.804379
2023-05-12T04:39:29.181Z,50.804340
2023-05-12T04:40:29.185Z,50.804340
2023-05-12T04:41:29.201Z,50.804359
2023-05-12T04:42:29.146Z,50.804405
2023-05-12T04:44:29.172Z,50.804379
2023-05-12T04:45:29.161Z,50.804363
2023-05-12T04:46:29.192Z,50.804356
2023-05-12T04:47:29.205Z,50.804348
2023-05-12T04:48:29.159Z,50.804340
2023-05-12T04:49:29.139Z,50.804329
2023-05-12T04:50:29.128Z,50.804359
2023-05-12T04:51:29.141Z,50.804367
2023-05-12T04:52:29.093Z,50.804394
2023-05-12T04:53:29.163Z,50.804356
2023-05-12T04:54:29.119Z,50.804367
2023-05-12T04:55:29.068Z,50.804356
2023-05-12T04:56:29.055Z,50.804333
2023-05-12T04:57:29.068Z,50.804333
2023-05-12T04:58:29.056Z,50.804340
2023-05-12T04:59:29.126Z,50.804333
2023-05-12T05:00:29.009Z,50.804359
2023-05-12T05:01:29.057Z,50.804379
2023-05-12T05:02:29.091Z,50.804371
2023-05-12T05:03:29.062Z,50.804371
2023-05-12T05:04:28.982Z,50.804340
2023-05-12T05:05:29.284Z,50.804371
2023-05-12T05:06:28.980Z,50.804352
2023-05-12T05:07:28.984Z,50.804340
2023-05-12T05:08:28.965Z,50.804363
2023-05-12T05:09:28.977Z,50.804356
2023-05-12T05:10:28.920Z,50.804340
2023-05-12T05:11:28.981Z,50.804337
2023-05-12T05:12:28.932Z,50.804344
2023-05-12T05:13:28.917Z,50.804348
2023-05-12T05:14:28.891Z,50.804356
2023-05-12T05:15:28.935Z,50.804352
2023-05-12T05:16:29.000Z,50.804379
2023-05-12T05:17:28.987Z,50.804359
2023-05-12T05:18:28.916Z,50.804375
2023-05-12T05:20:29.415Z,50.804348
2023-05-12T05:21:28.852Z,50.804329
2023-05-12T05:22:28.821Z,50.804356
2023-05-12T05:23:28.878Z,50.804371
2023-05-12T05:24:28.822Z,50.804356
2023-05-12T05:25:28.820Z,50.804394
2023-05-12T05:26:28.957Z,50.804337
2023-05-12T05:27:28.801Z,50.804348
2023-05-12T05:28:28.801Z,50.804344
2023-05-12T05:29:28.855Z,50.804325
2023-05-12T05:30:28.798Z,50.804333
2023-05-12T05:31:29.037Z,50.804298
2023-05-12T05:32:28.789Z,50.804333
2023-05-12T05:33:28.766Z,50.804348
2023-05-12T05:34:28.791Z,50.804321
2023-05-12T05:35:28.790Z,50.804306
2023-05-12T05:36:29.961Z,50.804256
2023-05-12T05:37:28.736Z,50.804253
2023-05-12T05:38:28.748Z,50.804249
2023-05-12T05:39:28.715Z,50.804287
2023-05-12T05:40:33.833Z,50.804321
2023-05-12T05:41:30.478Z,50.804337
2023-05-12T05:42:28.697Z,50.804291
2023-05-12T05:43:28.682Z,50.804264
2023-05-12T05:44:28.683Z,50.804260
2023-05-12T05:45:28.690Z,50.804245
2023-05-12T05:46:28.677Z,50.804214
2023-05-12T05:47:28.743Z,50.804268
2023-05-12T05:48:28.687Z,50.804283
2023-05-12T05:49:28.653Z,50.804279
2023-05-12T05:50:28.646Z,50.804317
2023-05-12T05:51:28.635Z,50.804440
2023-05-12T05:52:28.633Z,50.804417
2023-05-12T05:53:29.126Z,50.804420
2023-05-12T05:54:28.627Z,50.804470
2023-05-12T05:55:28.592Z,50.804466
2023-05-12T05:56:28.574Z,50.804482
2023-05-12T05:57:28.582Z,50.804401
2023-05-12T05:58:28.598Z,50.804359
2023-05-12T05:59:28.605Z,50.804325
2023-05-12T06:00:28.569Z,50.804276
2023-05-12T06:01:28.556Z,50.804276
2023-05-12T06:02:28.640Z,50.804314
2023-05-12T06:03:28.642Z,50.804256
2023-05-12T06:04:28.817Z,50.804279
2023-05-12T06:05:28.554Z,50.804272
2023-05-12T06:06:28.513Z,50.804253
2023-05-12T06:07:28.506Z,50.804325
2023-05-12T06:08:28.513Z,50.804276
2023-05-12T06:09:28.523Z,50.804226
2023-05-12T06:10:28.493Z,50.804287
2023-05-12T06:11:28.976Z,50.804325
2023-05-12T06:12:28.450Z,50.804279
2023-05-12T06:13:28.489Z,50.804302
2023-05-12T06:14:28.450Z,50.804283
2023-05-12T06:15:28.467Z,50.804314
2023-05-12T06:16:28.467Z,50.804272
2023-05-12T06:17:30.261Z,50.804298
2023-05-12T06:18:28.422Z,50.804287
2023-05-12T06:19:28.393Z,50.804382
2023-05-12T06:20:28.440Z,50.804317
2023-05-12T06:21:28.431Z,50.804310
2023-05-12T06:22:28.411Z,50.804306
2023-05-12T06:23:28.451Z,50.804291
2023-05-12T06:24:28.404Z,50.804268
2023-05-12T06:25:28.366Z,50.804314
2023-05-12T06:26:28.348Z,50.804287
2023-05-12T06:27:28.358Z,50.804363
2023-05-12T06:28:28.357Z,50.804371
2023-05-12T06:29:28.402Z,50.804272
2023-05-12T06:30:28.397Z,50.804256
2023-05-12T06:31:28.355Z,50.804180
2023-05-12T06:32:28.343Z,50.804306
2023-05-12T06:33:28.305Z,50.804253
2023-05-12T06:34:28.325Z,50.804268
2023-05-12T06:35:28.364Z,50.804298
2023-05-12T06:36:28.287Z,50.804283
2023-05-12T06:37:28.294Z,50.804302
2023-05-12T06:38:28.275Z,50.804337
2023-05-12T06:39:28.286Z,50.804333
2023-05-12T06:40:28.295Z,50.804356
2023-05-12T06:41:28.309Z,50.804390
2023-05-12T06:42:28.281Z,50.804401
2023-05-12T06:43:28.260Z,50.804340
2023-05-12T06:44:28.259Z,50.804314
2023-05-12T06:45:28.228Z,50.804337
2023-05-12T06:46:28.270Z,50.804344
2023-05-12T06:47:28.441Z,50.804367
2023-05-12T06:48:28.249Z,50.804356
2023-05-12T06:49:28.211Z,50.804363
2023-05-12T06:50:28.216Z,50.804352
2023-05-12T06:51:28.175Z,50.804317
2023-05-12T06:52:28.189Z,50.804310
2023-05-12T06:53:28.196Z,50.804321
2023-05-12T06:54:28.156Z,50.804333
2023-05-12T06:55:28.179Z,50.804298
2023-05-12T06:56:28.152Z,50.804317
2023-05-12T06:57:28.158Z,50.804306
2023-05-12T06:58:28.119Z,50.804291
2023-05-12T06:59:28.177Z,50.804317
2023-05-12T07:00:28.118Z,50.804317
2023-05-12T07:01:28.134Z,50.804314
2023-05-12T07:02:28.136Z,50.804314
2023-05-12T07:03:28.171Z,50.804287
2023-05-12T07:04:28.119Z,50.804306
2023-05-12T07:05:28.166Z,50.804314
2023-05-12T07:06:28.065Z,50.804325
2023-05-12T07:07:28.058Z,50.804325
2023-05-12T07:08:28.058Z,50.804314
2023-05-12T07:09:28.074Z,50.804337
2023-05-12T07:10:28.084Z,50.804371
2023-05-12T07:11:28.192Z,50.804371
2023-05-12T07:12:28.050Z,50.804367
2023-05-12T07:13:28.063Z,50.804394
2023-05-12T07:14:28.002Z,50.804386
2023-05-12T07:15:28.502Z,50.804371
2023-05-12T07:16:28.117Z,50.804356
2023-05-12T07:17:28.509Z,50.804386
2023-05-12T07:18:28.031Z,50.804367
2023-05-12T07:19:27.996Z,50.804317
2023-05-12T07:20:27.985Z,50.804329
2023-05-12T07:21:27.956Z,50.804264
2023-05-12T07:22:27.951Z,50.804321
2023-05-12T07:23:28.000Z,50.804337
2023-05-12T07:24:27.974Z,50.804291
2023-05-12T07:25:28.010Z,50.804310
2023-05-12T07:26:27.912Z,50.804310
2023-05-12T07:27:27.946Z,50.804317
2023-05-12T07:28:27.932Z,50.804279
2023-05-12T07:29:27.976Z,50.804283
2023-05-12T07:30:27.937Z,50.804272
2023-05-12T07:31:27.893Z,50.804306
2023-05-12T07:32:27.943Z,50.804298
2023-05-12T07:33:27.864Z,50.804279
2023-05-12T07:34:27.891Z,50.804287
2023-05-12T07:35:27.900Z,50.804287
2023-05-12T07:36:27.847Z,50.804256
2023-05-12T07:37:27.852Z,50.804279
2023-05-12T07:38:27.859Z,50.804295
2023-05-12T07:39:27.850Z,50.804283
2023-05-12T07:40:27.817Z,50.804287
2023-05-12T07:41:27.868Z,50.804279
2023-05-12T07:42:27.853Z,50.804295
2023-05-12T07:43:27.825Z,50.804310
2023-05-12T07:44:27.815Z,50.804302
2023-05-12T07:45:27.802Z,50.804245
2023-05-12T07:46:27.866Z,50.804276
2023-05-12T07:47:27.865Z,50.804276
2023-05-12T07:48:27.791Z,50.804424
2023-05-12T07:49:27.761Z,50.804401
2023-05-12T07:50:27.799Z,50.804356
2023-05-12T07:51:27.759Z,50.804314
2023-05-12T07:52:27.753Z,50.804298
2023-05-12T07:53:27.828Z,50.804287
2023-05-12T07:54:27.740Z,50.804325
2023-05-12T07:55:27.791Z,50.804337
2023-05-12T07:56:27.711Z,50.804344
2023-05-12T07:57:27.700Z,50.804352
2023-05-12T07:58:27.697Z,50.804314
2023-05-12T07:59:27.784Z,50.804283
2023-05-12T08:00:27.737Z,50.804268
2023-05-12T08:01:27.682Z,50.804276
2023-05-12T08:02:27.692Z,50.804272
2023-05-12T08:03:27.729Z,50.804256
2023-05-12T08:04:27.782Z,50.804302
2023-05-12T08:05:27.706Z,50.804256
2023-05-12T08:06:27.653Z,50.804295
2023-05-12T08:07:27.703Z,50.804302
2023-05-12T08:08:27.647Z,50.804344
2023-05-12T08:09:27.630Z,50.804321
2023-05-12T08:10:27.608Z,50.804344
2023-05-12T08:11:27.641Z,50.804367
2023-05-12T08:12:27.606Z,50.804401
2023-05-12T08:13:27.578Z,50.804401
2023-05-12T08:14:27.594Z,50.804367
2023-05-12T08:15:27.574Z,50.804337
2023-05-12T08:16:27.568Z,50.804344
2023-05-12T08:17:29.274Z,50.804333
2023-05-12T08:18:28.111Z,50.804329
2023-05-12T08:19:27.539Z,50.804302
2023-05-12T08:20:27.546Z,50.804329
2023-05-12T08:21:27.595Z,50.804276
2023-05-12T08:22:27.546Z,50.804222
2023-05-12T08:23:28.027Z,50.804295
2023-05-12T08:24:27.575Z,50.804306
2023-05-12T08:25:27.502Z,50.804295
2023-05-12T08:26:27.494Z,50.804283
2023-05-12T08:27:27.507Z,50.804317
2023-05-12T08:28:27.497Z,50.804306
2023-05-12T08:29:27.513Z,50.804363
2023-05-12T08:30:27.454Z,50.804352
2023-05-12T08:31:27.532Z,50.804329
2023-05-12T08:32:27.512Z,50.804359
2023-05-12T08:33:27.517Z,50.804298
2023-05-12T08:34:27.461Z,50.804295
2023-05-12T08:35:27.498Z,50.804272
2023-05-12T08:36:27.450Z,50.804279
2023-05-12T08:37:27.414Z,50.804283
2023-05-12T08:38:27.437Z,50.804306
2023-05-12T08:39:27.454Z,50.804260
2023-05-12T08:40:27.434Z,50.804302
2023-05-12T08:41:27.430Z,50.804291
2023-05-12T08:42:27.408Z,50.804325
2023-05-12T08:43:27.392Z,50.804298
2023-05-12T08:44:27.365Z,50.804306
2023-05-12T08:45:27.399Z,50.804317
2023-05-12T08:46:27.460Z,50.804314
2023-05-12T08:47:27.434Z,50.804272
2023-05-12T08:48:27.356Z,50.804306
2023-05-12T08:49:27.335Z,50.804367
2023-05-12T08:50:27.312Z,50.804367
2023-05-12T08:51:27.316Z,50.804363
2023-05-12T08:52:27.309Z,50.804348
2023-05-12T08:53:27.358Z,50.804352
2023-05-12T08:54:27.292Z,50.804363
2023-05-12T08:55:31.797Z,50.804356
2023-05-12T08:57:28.828Z,50.804443
2023-05-12T08:58:37.829Z,50.804466
2023-05-12T08:59:28.293Z,50.804424
2023-05-12T09:00:27.248Z,50.804375
2023-05-12T09:01:27.271Z,50.804405
2023-05-12T09:02:29.398Z,50.804394
2023-05-12T09:03:28.224Z,50.804409
2023-05-12T09:04:27.259Z,50.804375
2023-05-12T09:05:27.249Z,50.804428
2023-05-12T09:06:27.221Z,50.804424
2023-05-12T09:07:27.187Z,50.804482
2023-05-12T09:08:27.178Z,50.804409
2023-05-12T09:09:27.180Z,50.804379
2023-05-12T09:10:35.321Z,50.804325
2023-05-12T09:11:28.195Z,50.804325
2023-05-12T09:12:27.153Z,50.804337
2023-05-12T09:13:27.162Z,50.804356
2023-05-12T09:14:27.166Z,50.804352
2023-05-12T09:15:27.132Z,50.804356
2023-05-12T09:16:27.154Z,50.804371
2023-05-12T09:17:27.198Z,50.804371
2023-05-12T09:18:27.156Z,50.804367
2023-05-12T09:19:27.097Z,50.804356
2023-05-12T09:20:31.376Z,50.804344
2023-05-12T09:21:27.098Z,50.804356
2023-05-12T09:22:27.087Z,50.804371
2023-05-12T09:23:27.135Z,50.804379
2023-05-12T09:24:27.101Z,50.804379
2023-05-12T09:25:27.098Z,50.804379
2023-05-12T09:26:27.143Z,50.804340
2023-05-12T09:27:27.095Z,50.804359
2023-05-12T09:28:27.043Z,50.804337
2023-05-12T09:29:31.932Z,50.804359
2023-05-12T09:30:28.095Z,50.804340
2023-05-12T09:31:27.046Z,50.804340
2023-05-12T09:32:27.019Z,50.804375
2023-05-12T09:33:27.009Z,50.804356
2023-05-12T09:34:26.997Z,50.804329
2023-05-12T09:35:27.079Z,50.804356
2023-05-12T09:36:26.975Z,50.804367
2023-05-12T09:37:26.999Z,50.804337
2023-05-12T09:38:27.029Z,50.804291
2023-05-12T09:39:26.972Z,50.804291
2023-05-12T09:40:26.963Z,50.804310
2023-05-12T09:41:26.986Z,50.804352
2023-05-12T09:42:26.980Z,50.804310
2023-05-12T09:43:27.022Z,50.804340
2023-05-12T09:44:26.946Z,50.804287
2023-05-12T09:45:26.933Z,50.804310
2023-05-12T09:46:27.029Z,50.804379
2023-05-12T09:47:27.003Z,50.804356
2023-05-12T09:48:27.582Z,50.804333
2023-05-12T09:49:27.049Z,50.804333
2023-05-12T09:50:29.020Z,50.804337
2023-05-12T09:51:27.896Z,50.804302
2023-05-12T09:52:26.898Z,50.804287
2023-05-12T09:53:26.915Z,50.804295
2023-05-12T09:54:26.860Z,50.804333
2023-05-12T09:55:26.923Z,50.804329
2023-05-12T09:56:26.860Z,50.804375
2023-05-12T09:57:26.928Z,50.804359
2023-05-12T09:58:26.847Z,50.804356
2023-05-12T09:59:27.048Z,50.804359
2023-05-12T10:00:43.420Z,50.804382
2023-05-12T10:01:27.893Z,50.804382
2023-05-12T10:02:27.007Z,50.804321
2023-05-12T10:03:28.219Z,50.804356
2023-05-12T10:04:26.872Z,50.804352
2023-05-12T10:05:26.861Z,50.804329
2023-05-12T10:06:26.801Z,50.804310
2023-05-12T10:07:26.834Z,50.804306
2023-05-12T10:08:26.766Z,50.804310
2023-05-12T10:09:26.840Z,50.804359
2023-05-12T10:10:26.789Z,50.804321
2023-05-12T10:11:26.905Z,50.804317
2023-05-12T10:12:26.793Z,50.804317
2023-05-12T10:13:26.803Z,50.804287
2023-05-12T10:14:26.743Z,50.804310
2023-05-12T10:15:26.687Z,50.804321
2023-05-12T10:16:26.750Z,50.804317
2023-05-12T10:17:26.879Z,50.804314
2023-05-12T10:18:26.729Z,50.804310
2023-05-12T10:19:26.653Z,50.804417
2023-05-12T10:20:26.662Z,50.804394
2023-05-12T10:21:26.681Z,50.804359
2023-05-12T10:22:26.753Z,50.804344
2023-05-12T10:23:26.709Z,50.804420
2023-05-12T10:24:26.619Z,50.804432
2023-05-12T10:25:26.651Z,50.804409
2023-05-12T10:26:26.698Z,50.804478
2023-05-12T10:27:26.720Z,50.804470
2023-05-12T10:28:26.626Z,50.804405
2023-05-12T10:29:26.680Z,50.804302
2023-05-12T10:30:26.617Z,50.804359
2023-05-12T10:31:26.678Z,50.804367
2023-05-12T10:32:26.663Z,50.804348
2023-05-12T10:33:26.557Z,50.804310
2023-05-12T10:34:26.543Z,50.804359
2023-05-12T10:35:26.848Z,50.804363
2023-05-12T10:36:26.548Z,50.804314
2023-05-12T10:37:26.542Z,50.804287
2023-05-12T10:38:26.532Z,50.804249
2023-05-12T10:39:26.510Z,50.804260
2023-05-12T10:40:26.522Z,50.804272
2023-05-12T10:41:26.587Z,50.804344
2023-05-12T10:42:26.528Z,50.804310
2023-05-12T10:43:26.501Z,50.804356
2023-05-12T10:44:26.498Z,50.804264
2023-05-12T10:45:26.561Z,50.804287
2023-05-12T10:46:26.571Z,50.804245
2023-05-12T10:47:26.545Z,50.804272
2023-05-12T10:48:26.470Z,50.804287
2023-05-12T10:49:26.447Z,50.804302
2023-05-12T10:50:26.448Z,50.804253
2023-05-12T10:51:26.460Z,50.804321
2023-05-12T10:52:26.444Z,50.804306
2023-05-12T10:53:35.157Z,50.804329
2023-05-12T10:54:27.484Z,50.804321
2023-05-12T10:55:26.635Z,50.804317
2023-05-12T10:56:26.654Z,50.804298
2023-05-12T10:57:26.713Z,50.804264
2023-05-12T10:58:27.034Z,50.804279
2023-05-12T10:59:26.623Z,50.804321
2023-05-12T11:00:26.914Z,50.804317
2023-05-12T11:01:26.641Z,50.804302
2023-05-12T11:02:27.817Z,50.804317
2023-05-12T11:03:27.520Z,50.804306
2023-05-12T11:04:26.944Z,50.804291
2023-05-12T11:05:27.278Z,50.804321
2023-05-12T11:06:27.132Z,50.804291
2023-05-12T11:07:26.577Z,50.804287
2023-05-12T11:08:26.693Z,50.804276
2023-05-12T11:09:27.245Z,50.804302
2023-05-12T11:10:26.687Z,50.804272
2023-05-12T11:11:26.389Z,50.804256
2023-05-12T11:12:26.278Z,50.804272
2023-05-12T11:13:26.321Z,50.804264
2023-05-12T11:14:26.285Z,50.804272
2023-05-12T11:15:26.268Z,50.804264
2023-05-12T11:16:26.331Z,50.804276
2023-05-12T11:17:26.342Z,50.804272
2023-05-12T11:18:26.351Z,50.804333
2023-05-12T11:19:26.260Z,50.804317
2023-05-12T11:20:27.565Z,50.804344
2023-05-12T11:21:26.281Z,50.804302
2023-05-12T11:22:26.236Z,50.804291
2023-05-12T11:23:26.282Z,50.804287
2023-05-12T11:24:26.390Z,50.804363
2023-05-12T11:25:26.256Z,50.804428
2023-05-12T11:26:26.179Z,50.804382
2023-05-12T11:27:26.291Z,50.804371